Time;durP1;ratioP1;P1;durP2;ratioP2;P2;SDS_P1;SDS_P2;PMS_P1;PMS_P2;Temp;Humidity;BMP_temperature;BMP_pressure;BME280_temperature;BME280_humidity;BME280_pressure;Samples;Min_cycle;Max_cycle;Signal;HPM_P1;HPM_P2
2021/05/29 00:01:09;;;;;;;7.57;2.97;;;15.20;95.30;;;;;;5016935;28;20041;-81
2021/05/29 00:03:35;;;;;;;5.22;2.95;;;15.20;95.40;;;;;;5032520;28;20055;-80
2021/05/29 00:06:01;;;;;;;4.50;2.72;;;15.20;95.40;;;;;;5032883;28;20057;-80
2021/05/29 00:08:27;;;;;;;4.97;2.75;;;15.20;95.40;;;;;;5032691;28;20036;-80
2021/05/29 00:10:55;;;;;;;5.50;2.58;;;15.20;95.40;;;;;;5031488;28;20024;-81
2021/05/29 00:13:22;;;;;;;6.32;2.97;;;15.10;95.30;;;;;;5031497;28;20034;-81
2021/05/29 00:15:48;;;;;;;6.35;2.80;;;15.10;95.50;;;;;;5050655;28;20017;-81
2021/05/29 00:18:15;;;;;;;5.72;2.72;;;15.00;95.30;;;;;;5013905;28;20105;-81
2021/05/29 00:20:40;;;;;;;8.25;3.33;;;15.00;95.40;;;;;;5016996;28;20029;-80
2021/05/29 00:23:07;;;;;;;5.15;2.90;;;15.00;95.50;;;;;;5036721;28;20402;-81
2021/05/29 00:25:34;;;;;;;9.57;3.70;;;14.90;95.60;;;;;;5054958;28;20029;-80
2021/05/29 00:27:59;;;;;;;8.27;3.70;;;14.90;95.70;;;;;;5036779;28;20025;-80
2021/05/29 00:30:25;;;;;;;6.07;3.38;;;14.90;95.70;;;;;;5036809;28;20035;-80
2021/05/29 00:32:51;;;;;;;5.82;3.80;;;14.80;95.70;;;;;;5020090;28;20037;-80
2021/05/29 00:35:17;;;;;;;9.25;3.80;;;14.80;95.80;;;;;;5054663;28;20160;-81
2021/05/29 00:37:44;;;;;;;8.88;3.50;;;14.80;95.90;;;;;;5037216;28;20107;-80
2021/05/29 00:40:11;;;;;;;8.70;3.55;;;14.80;96.00;;;;;;5020486;28;20076;-80
2021/05/29 00:42:38;;;;;;;6.05;3.92;;;14.80;96.20;;;;;;5036395;28;20029;-80
2021/05/29 00:45:04;;;;;;;9.95;3.83;;;14.80;96.00;;;;;;5036595;28;20042;-80
2021/05/29 00:47:30;;;;;;;8.82;3.85;;;14.80;96.10;;;;;;5021623;28;20124;-80
2021/05/29 00:49:58;;;;;;;7.25;3.90;;;14.90;96.30;;;;;;5037864;28;20023;-79
2021/05/29 00:52:25;;;;;;;11.48;5.35;;;14.80;96.10;;;;;;5020537;28;20398;-79
2021/05/29 00:54:51;;;;;;;9.70;3.70;;;14.80;96.10;;;;;;5020067;28;20112;-79
2021/05/29 00:57:18;;;;;;;7.25;4.00;;;14.80;96.20;;;;;;5054221;28;20403;-79
2021/05/29 00:59:44;;;;;;;8.70;4.32;;;14.70;96.20;;;;;;5036521;28;20028;-79
2021/05/29 01:02:14;;;;;;;9.75;4.22;;;14.70;96.30;;;;;;5036571;28;20024;-81
2021/05/29 01:04:41;;;;;;;16.30;4.03;;;14.70;96.40;;;;;;5054519;28;20100;-79
2021/05/29 01:07:12;;;;;;;8.55;4.18;;;14.80;96.40;;;;;;5036552;28;20171;-79
2021/05/29 01:09:42;;;;;;;8.65;3.95;;;14.70;96.40;;;;;;5036354;28;20077;-80
2021/05/29 01:12:09;;;;;;;9.85;3.85;;;14.70;96.40;;;;;;5054583;28;20106;-80
2021/05/29 01:14:45;;;;;;;10.57;3.75;;;14.70;96.40;;;;;;5054790;28;20029;-80
2021/05/29 01:17:11;;;;;;;9.75;4.60;;;14.80;96.50;;;;;;5036206;28;20170;-80
2021/05/29 01:19:37;;;;;;;8.25;4.22;;;14.80;96.40;;;;;;5019875;28;20566;-80
2021/05/29 01:22:08;;;;;;;8.10;4.25;;;14.80;96.40;;;;;;5019363;28;20029;-79
2021/05/29 01:24:34;;;;;;;7.18;4.00;;;14.80;96.40;;;;;;5036090;28;20091;-80
2021/05/29 01:27:00;;;;;;;8.20;4.03;;;14.80;96.40;;;;;;5036035;28;20044;-79
2021/05/29 01:29:26;;;;;;;9.07;5.35;;;14.80;96.50;;;;;;5053766;28;20029;-81
2021/05/29 01:32:01;;;;;;;13.75;4.20;;;14.80;96.50;;;;;;5018235;28;20087;-80
2021/05/29 01:34:30;;;;;;;8.60;3.85;;;14.70;96.60;;;;;;5017560;28;20037;-80
2021/05/29 01:36:57;;;;;;;7.72;3.67;;;14.80;96.60;;;;;;5051400;28;20093;-80
2021/05/29 01:39:23;;;;;;;6.70;3.25;;;14.80;96.50;;;;;;5050908;28;20025;-79
2021/05/29 01:41:51;;;;;;;8.85;4.57;;;14.80;96.50;;;;;;5033488;28;20529;-80
2021/05/29 01:44:17;;;;;;;6.57;3.47;;;14.80;96.60;;;;;;5016331;28;20406;-80
2021/05/29 01:46:43;;;;;;;6.97;3.72;;;14.80;96.50;;;;;;5033312;28;20399;-79
2021/05/29 01:49:09;;;;;;;9.25;3.83;;;14.80;96.50;;;;;;5016330;28;20032;-80
2021/05/29 01:51:35;;;;;;;8.52;3.80;;;14.80;96.50;;;;;;5032658;28;20060;-80
2021/05/29 01:54:01;;;;;;;5.57;3.30;;;14.80;96.50;;;;;;5032337;28;20080;-79
2021/05/29 01:56:26;;;;;;;6.88;3.40;;;14.80;96.60;;;;;;5016060;28;20025;-79
2021/05/29 01:58:52;;;;;;;6.65;3.45;;;14.80;96.60;;;;;;5015895;28;20021;-80
2021/05/29 02:01:18;;;;;;;10.65;4.47;;;14.80;96.60;;;;;;5032535;28;20112;-80
2021/05/29 02:03:45;;;;;;;10.30;3.67;;;14.80;96.60;;;;;;5015994;28;20033;-79
2021/05/29 02:06:12;;;;;;;8.45;3.80;;;14.80;96.60;;;;;;5050252;28;20028;-80
2021/05/29 02:08:39;;;;;;;6.28;3.33;;;14.80;96.60;;;;;;5050131;28;20025;-80
2021/05/29 02:11:05;;;;;;;6.55;3.90;;;14.80;96.60;;;;;;5032217;28;20063;-79
2021/05/29 02:13:38;;;;;;;13.93;4.30;;;14.80;96.60;;;;;;5032535;28;20025;-79
2021/05/29 02:16:06;;;;;;;9.25;4.10;;;14.80;96.70;;;;;;5032142;28;20429;-79
2021/05/29 02:18:32;;;;;;;7.40;3.20;;;14.80;96.60;;;;;;5032163;28;20025;-80
2021/05/29 02:21:03;;;;;;;6.90;4.15;;;14.70;96.60;;;;;;5015365;28;20029;-80
2021/05/29 02:23:34;;;;;;;7.70;3.65;;;14.70;96.60;;;;;;5016060;28;20025;-80
2021/05/29 02:26:03;;;;;;;6.15;3.28;;;14.70;96.50;;;;;;5031964;28;20085;-80
2021/05/29 02:28:33;;;;;;;9.18;4.07;;;14.70;96.60;;;;;;5032232;28;20028;-80
2021/05/29 02:31:00;;;;;;;11.75;3.97;;;14.70;96.60;;;;;;5049708;28;20025;-79
2021/05/29 02:33:26;;;;;;;10.05;3.53;;;14.60;96.60;;;;;;5031868;28;20040;-80
2021/05/29 02:35:53;;;;;;;11.85;3.55;;;14.60;96.60;;;;;;5049626;28;20493;-79
2021/05/29 02:38:19;;;;;;;8.52;3.80;;;14.60;96.60;;;;;;5015489;28;20534;-79
2021/05/29 02:40:45;;;;;;;6.38;3.05;;;14.50;96.60;;;;;;5015366;28;20029;-80
2021/05/29 02:43:11;;;;;;;8.35;3.20;;;14.40;96.60;;;;;;5031547;28;20029;-79
2021/05/29 02:45:40;;;;;;;8.27;3.90;;;14.30;96.70;;;;;;5031601;28;20551;-80
2021/05/29 02:48:08;;;;;;;7.72;3.38;;;14.30;96.90;;;;;;5032274;28;20040;-79
2021/05/29 02:50:34;;;;;;;9.23;3.53;;;14.30;97.00;;;;;;5015006;28;20033;-79
2021/05/29 02:53:00;;;;;;;5.38;2.63;;;14.20;97.10;;;;;;5031814;28;20098;-80
2021/05/29 02:55:26;;;;;;;5.57;3.63;;;14.30;97.30;;;;;;5031479;28;20087;-79
2021/05/29 02:57:56;;;;;;;7.55;2.80;;;14.30;97.30;;;;;;5031686;28;20029;-80
2021/05/29 03:00:32;;;;;;;7.72;2.85;;;14.40;97.20;;;;;;5015456;28;20079;-79
2021/05/29 03:03:00;;;;;;;6.70;2.78;;;14.40;97.10;;;;;;5031469;28;20049;-80
2021/05/29 03:05:26;;;;;;;4.60;2.65;;;14.40;97.00;;;;;;5031424;28;20558;-80
2021/05/29 03:07:52;;;;;;;6.82;2.35;;;14.50;96.90;;;;;;5031133;28;20452;-80
2021/05/29 03:10:21;;;;;;;5.63;3.00;;;14.60;96.90;;;;;;5049172;28;20025;-79
2021/05/29 03:12:47;;;;;;;7.95;2.97;;;14.60;96.80;;;;;;5014692;28;20581;-79
2021/05/29 03:15:17;;;;;;;5.75;2.78;;;14.60;96.70;;;;;;5014479;28;20037;-81
2021/05/29 03:17:44;;;;;;;5.63;3.00;;;14.60;96.80;;;;;;5030858;28;20440;-79
2021/05/29 03:20:12;;;;;;;6.55;2.92;;;14.60;96.70;;;;;;5031011;28;20021;-81
2021/05/29 03:22:38;;;;;;;4.53;2.90;;;14.60;96.60;;;;;;5030875;28;20112;-80
2021/05/29 03:25:08;;;;;;;5.93;3.08;;;14.60;96.60;;;;;;5014588;28;20484;-80
2021/05/29 03:27:34;;;;;;;5.40;2.90;;;14.60;96.60;;;;;;5030820;28;20025;-80
2021/05/29 03:30:00;;;;;;;8.30;2.92;;;14.60;96.80;;;;;;5048571;28;20028;-81
2021/05/29 03:32:26;;;;;;;7.82;2.70;;;14.60;96.60;;;;;;5030836;28;20129;-79
2021/05/29 03:34:52;;;;;;;5.30;2.83;;;14.60;96.60;;;;;;5030608;28;20475;-81
2021/05/29 03:37:17;;;;;;;4.78;2.85;;;14.60;96.60;;;;;;5030754;28;20025;-80
2021/05/29 03:39:43;;;;;;;4.15;2.50;;;14.60;96.50;;;;;;5048447;28;20479;-80
2021/05/29 03:42:09;;;;;;;8.13;3.15;;;14.60;96.50;;;;;;5049078;28;20444;-79
2021/05/29 03:44:35;;;;;;;4.65;2.80;;;14.60;96.50;;;;;;5014283;28;20048;-80
2021/05/29 03:47:00;;;;;;;5.35;2.95;;;14.60;96.50;;;;;;5030556;28;20040;-79
2021/05/29 03:49:26;;;;;;;6.45;2.97;;;14.50;96.50;;;;;;5014020;28;20037;-79
2021/05/29 03:51:52;;;;;;;4.47;2.78;;;14.50;96.50;;;;;;5030719;28;20033;-79
2021/05/29 03:54:18;;;;;;;8.10;3.17;;;14.40;96.50;;;;;;5013664;28;20226;-79
2021/05/29 03:56:44;;;;;;;5.70;3.03;;;14.40;96.50;;;;;;5047751;28;20100;-79
2021/05/29 03:59:14;;;;;;;5.35;2.70;;;14.30;96.50;;;;;;5013851;28;20112;-79
2021/05/29 04:01:40;;;;;;;;;;;14.30;96.70;;;;;;5031370;28;20033;-80
2021/05/29 04:04:08;;;;;;;5.57;2.83;;;14.20;96.60;;;;;;5047858;28;19909;-79
2021/05/29 04:06:34;;;;;;;10.10;2.90;;;14.20;96.60;;;;;;5048147;28;20025;-80
2021/05/29 04:09:01;;;;;;;3.10;2.53;;;14.10;96.60;;;;;;5030064;28;20045;-80
2021/05/29 04:11:26;;;;;;;3.92;2.72;;;14.10;96.70;;;;;;5013895;28;20033;-80
2021/05/29 04:13:52;;;;;;;4.22;2.70;;;14.00;96.80;;;;;;5048247;28;20095;-79
2021/05/29 04:16:18;;;;;;;7.78;2.88;;;14.00;97.00;;;;;;5030359;28;20052;-80
2021/05/29 04:18:44;;;;;;;5.53;2.22;;;13.90;97.00;;;;;;5047824;28;20083;-81
2021/05/29 04:21:10;;;;;;;3.88;2.33;;;13.80;97.10;;;;;;5013852;28;20430;-80
2021/05/29 04:23:36;;;;;;;4.05;2.50;;;13.80;97.30;;;;;;5030054;28;20104;-80
2021/05/29 04:26:06;;;;;;;6.85;2.78;;;13.70;97.30;;;;;;5030044;28;20081;-79
2021/05/29 04:28:32;;;;;;;3.83;3.00;;;13.70;97.40;;;;;;5047947;28;20040;-79
2021/05/29 04:30:58;;;;;;;9.32;3.80;;;13.60;97.40;;;;;;5013500;28;20029;-80
2021/05/29 04:33:24;;;;;;;6.03;3.28;;;13.60;97.50;;;;;;5029959;28;20175;-79
2021/05/29 04:35:50;;;;;;;5.82;3.15;;;13.50;97.60;;;;;;5029643;28;20029;-80
2021/05/29 04:38:16;;;;;;;4.38;2.63;;;13.50;97.70;;;;;;5029676;28;20021;-80
2021/05/29 04:40:41;;;;;;;4.85;2.90;;;13.40;97.80;;;;;;5029635;28;20145;-79
2021/05/29 04:43:07;;;;;;;4.40;3.20;;;13.40;97.90;;;;;;5013227;28;20475;-80
2021/05/29 04:45:33;;;;;;;4.13;2.70;;;13.40;98.00;;;;;;5013487;28;20120;-80
2021/05/29 04:47:58;;;;;;;5.15;2.83;;;13.40;98.00;;;;;;5013283;28;20045;-80
2021/05/29 04:50:24;;;;;;;4.75;3.03;;;13.40;98.00;;;;;;5029912;28;20036;-80
2021/05/29 04:52:50;;;;;;;7.70;3.53;;;13.40;98.00;;;;;;5013557;28;20029;-79
2021/05/29 04:55:16;;;;;;;4.47;2.90;;;13.50;98.00;;;;;;5012929;28;20059;-80
2021/05/29 04:57:43;;;;;;;5.30;3.22;;;13.50;98.00;;;;;;5013206;28;20111;-80
2021/05/29 05:00:12;;;;;;;5.93;2.95;;;13.50;98.00;;;;;;5029953;28;20117;-80
2021/05/29 05:02:38;;;;;;;3.42;2.38;;;13.50;98.00;;;;;;5029750;28;20025;-79
2021/05/29 05:05:04;;;;;;;3.55;2.53;;;13.50;98.30;;;;;;5013309;28;20029;-80
2021/05/29 05:07:30;;;;;;;3.67;3.00;;;13.50;98.40;;;;;;5031457;28;20053;-80
2021/05/29 05:09:56;;;;;;;3.45;2.80;;;13.60;98.50;;;;;;5051068;28;20110;-80
2021/05/29 05:12:22;;;;;;;4.57;3.35;;;13.70;98.50;;;;;;5033439;28;20395;-79
2021/05/29 05:14:48;;;;;;;5.25;3.40;;;13.80;98.40;;;;;;5051096;28;20493;-80
2021/05/29 05:17:14;;;;;;;8.50;3.55;;;13.80;98.40;;;;;;5016919;28;20436;-80
2021/05/29 05:19:40;;;;;;;6.55;2.92;;;13.90;98.50;;;;;;5033095;28;20067;-80
2021/05/29 05:22:05;;;;;;;3.97;3.22;;;14.00;98.40;;;;;;5032996;28;20052;-80
2021/05/29 05:24:31;;;;;;;7.80;3.22;;;14.20;98.30;;;;;;5016554;28;20120;-80
2021/05/29 05:26:57;;;;;;;3.90;3.10;;;14.40;98.20;;;;;;5032789;28;20473;-80
2021/05/29 05:29:23;;;;;;;6.72;3.35;;;14.60;97.90;;;;;;5032706;28;20077;-80
2021/05/29 05:31:49;;;;;;;5.50;3.33;;;14.90;97.70;;;;;;5032812;28;20037;-81
2021/05/29 05:34:15;;;;;;;6.03;3.20;;;15.10;97.30;;;;;;5016049;28;20502;-80
2021/05/29 05:36:41;;;;;;;4.90;2.63;;;15.30;96.90;;;;;;5016351;28;20036;-80
2021/05/29 05:39:09;;;;;;;4.13;2.92;;;15.40;96.50;;;;;;5016162;28;20446;-81
2021/05/29 05:41:39;;;;;;;5.57;3.10;;;15.50;96.20;;;;;;5050688;28;20024;-80
2021/05/29 05:44:06;;;;;;;10.98;2.83;;;15.60;96.10;;;;;;5032874;28;20052;-80
2021/05/29 05:46:31;;;;;;;8.27;2.53;;;15.70;95.90;;;;;;5033234;28;20040;-80
2021/05/29 05:48:57;;;;;;;5.65;3.38;;;15.70;95.80;;;;;;5016709;28;20033;-80
2021/05/29 05:51:24;;;;;;;4.53;2.60;;;15.80;95.70;;;;;;5017139;28;20037;-80
2021/05/29 05:53:50;;;;;;;3.70;2.10;;;15.80;95.50;;;;;;5034509;28;20044;-79
2021/05/29 05:56:25;;;;;;;4.45;3.05;;;15.80;95.40;;;;;;5017865;28;20476;-81
2021/05/29 05:58:52;;;;;;;3.75;2.55;;;15.90;95.40;;;;;;5034131;28;20025;-80
2021/05/29 06:01:17;;;;;;;5.13;2.88;;;15.90;95.30;;;;;;5033843;28;20033;-79
2021/05/29 06:03:43;;;;;;;3.75;2.40;;;16.20;95.50;;;;;;5035832;28;20017;-80
2021/05/29 06:06:09;;;;;;;4.80;2.50;;;16.50;94.90;;;;;;5035044;28;20025;-79
2021/05/29 06:08:35;;;;;;;5.00;2.83;;;16.70;94.40;;;;;;5020008;28;20025;-79
2021/05/29 06:11:01;;;;;;;8.98;3.13;;;16.90;93.90;;;;;;5017710;28;20134;-80
2021/05/29 06:21:18;;;;;;;4.68;2.72;;;16.90;93.10;;;;;;5036981;28;20032;-81
2021/05/29 06:23:44;;;;;;;9.10;2.97;;;17.20;93.00;;;;;;5035705;28;20017;-81
2021/05/29 06:26:09;;;;;;;6.63;3.22;;;17.40;92.50;;;;;;5035674;28;20036;-81
2021/05/29 06:28:35;;;;;;;5.45;2.80;;;17.60;91.90;;;;;;5019187;28;20148;-80
2021/05/29 06:31:01;;;;;;;5.60;2.67;;;17.80;91.60;;;;;;5052831;28;20478;-80
2021/05/29 06:33:27;;;;;;;4.57;2.78;;;18.40;91.70;;;;;;5054200;28;20037;-80
2021/05/29 06:35:52;;;;;;;6.45;2.78;;;19.80;90.90;;;;;;5019134;28;20526;-81
2021/05/29 06:38:18;;;;;;;4.20;2.17;;;21.30;87.50;;;;;;5034345;28;20025;-80
2021/05/29 06:40:44;;;;;;;4.35;2.75;;;22.60;82.70;;;;;;5034021;28;20025;-81
2021/05/29 06:43:09;;;;;;;3.45;2.25;;;23.70;79.20;;;;;;5016839;28;20029;-80
2021/05/29 06:45:35;;;;;;;4.78;2.20;;;24.90;76.10;;;;;;5033833;28;20384;-80
2021/05/29 06:48:01;;;;;;;4.25;1.90;;;25.70;72.90;;;;;;5017413;28;20048;-81
2021/05/29 06:50:27;;;;;;;5.93;2.47;;;26.40;70.70;;;;;;5034041;28;20090;-80
2021/05/29 06:52:55;;;;;;;2.97;2.10;;;26.40;67.50;;;;;;5032463;28;20045;-81
2021/05/29 07:00:50;;;;;;;5.10;2.00;;;23.80;67.30;;;;;;5048572;28;20387;-81
2021/05/29 07:03:16;;;;;;;4.93;2.20;;;22.70;67.00;;;;;;5030835;28;20029;-81
2021/05/29 07:05:42;;;;;;;4.10;2.25;;;21.70;67.50;;;;;;5015228;28;20040;-80
2021/05/29 07:08:08;;;;;;;4.25;2.35;;;20.80;68.60;;;;;;5014810;28;20028;-81
2021/05/29 07:10:34;;;;;;;4.15;2.55;;;20.00;70.00;;;;;;5031574;28;20104;-80
2021/05/29 07:12:59;;;;;;;6.70;2.42;;;19.50;71.40;;;;;;5048954;28;20040;-80
2021/05/29 07:15:29;;;;;;;6.18;2.58;;;19.10;72.50;;;;;;5031013;28;20368;-79
2021/05/29 07:17:56;;;;;;;5.93;2.30;;;18.80;73.40;;;;;;5033181;28;20497;-81
2021/05/29 07:20:22;;;;;;;4.13;2.05;;;18.60;74.60;;;;;;5031252;28;20476;-79
2021/05/29 07:22:48;;;;;;;4.65;2.50;;;18.50;75.00;;;;;;5032262;28;20036;-80
2021/05/29 07:25:14;;;;;;;3.05;2.20;;;18.40;75.00;;;;;;5014384;28;20328;-81
2021/05/29 07:27:39;;;;;;;3.67;2.78;;;18.30;75.30;;;;;;5030867;28;20111;-80
2021/05/29 07:30:07;;;;;;;3.90;2.40;;;18.10;75.60;;;;;;5030311;28;20096;-80
2021/05/29 07:32:34;;;;;;;3.60;2.50;;;17.90;76.20;;;;;;5013895;28;20029;-80
2021/05/29 07:35:00;;;;;;;10.38;2.55;;;17.80;76.60;;;;;;5014621;28;20082;-80
2021/05/29 07:37:27;;;;;;;4.63;1.80;;;17.80;77.20;;;;;;5049039;28;20383;-80
2021/05/29 07:39:52;;;;;;;2.90;1.58;;;17.90;78.00;;;;;;5030514;28;20052;-81
2021/05/29 07:42:18;;;;;;;4.03;1.98;;;18.10;78.80;;;;;;5013857;28;20063;-80
2021/05/29 07:44:44;;;;;;;3.33;2.13;;;18.60;78.80;;;;;;5014201;28;20082;-80
2021/05/29 07:47:10;;;;;;;4.15;2.60;;;18.90;77.90;;;;;;5014483;28;20029;-80
2021/05/29 07:49:36;;;;;;;2.20;1.80;;;18.90;77.60;;;;;;5014808;28;20031;-80
2021/05/29 07:52:02;;;;;;;3.63;1.90;;;19.00;77.50;;;;;;5014308;28;20394;-81
2021/05/29 07:54:28;;;;;;;3.05;2.30;;;19.00;77.20;;;;;;5030642;28;20045;-77
2021/05/29 07:56:55;;;;;;;7.28;1.85;;;19.00;77.30;;;;;;5013704;28;20029;-78
2021/05/29 07:59:20;;;;;;;3.05;2.03;;;19.00;77.30;;;;;;5013311;28;20131;-76
2021/05/29 08:01:46;;;;;;;2.88;1.80;;;19.00;77.60;;;;;;5030295;28;20474;-80
2021/05/29 08:04:13;;;;;;;6.22;2.28;;;19.20;77.20;;;;;;5014037;28;20033;-80
2021/05/29 08:06:39;;;;;;;3.55;2.00;;;19.50;76.90;;;;;;5013789;28;20667;-81
2021/05/29 08:09:06;;;;;;;8.00;2.38;;;19.80;76.60;;;;;;5013285;28;20167;-80
2021/05/29 08:11:37;;;;;;;5.70;2.30;;;20.10;76.10;;;;;;5013212;28;20112;-79
2021/05/29 08:14:05;;;;;;;3.03;1.58;;;20.50;76.20;;;;;;5029818;28;20029;-81
2021/05/29 08:16:31;;;;;;;2.67;1.87;;;21.40;76.10;;;;;;5030188;28;20502;-80
2021/05/29 08:18:57;;;;;;;3.53;2.00;;;22.40;75.30;;;;;;5047989;28;20045;-80
2021/05/29 08:21:23;;;;;;;3.78;2.15;;;23.30;73.10;;;;;;5012987;28;20510;-82
2021/05/29 08:23:49;;;;;;;3.38;1.83;;;23.80;71.10;;;;;;5012940;28;20479;-81
2021/05/29 08:26:15;;;;;;;3.05;1.98;;;24.20;69.40;;;;;;5013151;28;20618;-80
2021/05/29 08:28:44;;;;;;;2.25;1.50;;;24.60;68.00;;;;;;5029232;28;20475;-80
2021/05/29 08:31:11;;;;;;;2.80;1.73;;;25.00;67.30;;;;;;5047537;28;20028;-79
2021/05/29 08:33:36;;;;;;;2.58;1.70;;;25.80;67.60;;;;;;5029136;28;20029;-81
2021/05/29 08:36:03;;;;;;;7.35;2.03;;;26.30;64.80;;;;;;5029201;28;20025;-79
2021/05/29 08:38:28;;;;;;;2.30;1.50;;;26.30;63.60;;;;;;5029518;28;20025;-80
2021/05/29 08:40:54;;;;;;;2.05;1.60;;;26.50;63.30;;;;;;5030014;28;20031;-81
2021/05/29 08:43:20;;;;;;;3.20;1.83;;;26.80;62.10;;;;;;5050806;28;20057;-81
2021/05/29 08:45:46;;;;;;;3.22;1.80;;;27.60;61.80;;;;;;5033651;28;20032;-81
2021/05/29 08:48:12;;;;;;;3.30;1.58;;;28.60;60.30;;;;;;5016856;28;20114;-81
2021/05/29 08:51:12;;;;;;;2.60;1.70;;;29.60;59.50;;;;;;5034651;28;20029;-79
2021/05/29 08:53:24;;;;;;;2.33;1.40;;;30.70;58.30;;;;;;5051807;28;20071;-80
2021/05/29 08:55:50;;;;;;;2.80;1.40;;;31.90;56.80;;;;;;5051128;28;20044;-81
2021/05/29 08:58:15;;;;;;;2.33;1.33;;;32.70;55.30;;;;;;5032851;28;20029;-82
2021/05/29 09:00:41;;;;;;;2.75;1.58;;;33.40;53.60;;;;;;5016636;28;20029;-81
2021/05/29 09:03:11;;;;;;;2.55;1.60;;;34.10;52.30;;;;;;5016502;28;20040;-82
2021/05/29 09:05:50;;;;;;;2.75;1.73;;;34.80;51.60;;;;;;5018543;28;20158;-83
2021/05/29 09:08:16;;;;;;;1.90;1.42;;;35.40;49.50;;;;;;5052519;28;20021;-81
2021/05/29 09:10:42;;;;;;;3.15;1.30;;;34.20;48.20;;;;;;5053223;28;20108;-83
2021/05/29 09:13:23;;;;;;;4.38;1.48;;;32.80;47.90;;;;;;5053555;28;20048;-81
2021/05/29 09:16:05;;;;;;;3.92;1.67;;;31.70;48.10;;;;;;5054062;28;20045;-81
2021/05/29 09:18:45;;;;;;;2.47;1.40;;;30.50;48.90;;;;;;5036993;28;20033;-82
2021/05/29 09:21:26;;;;;;;2.63;1.80;;;30.20;49.90;;;;;;5037020;28;20064;-84
2021/05/29 09:24:05;;;;;;;3.28;2.00;;;31.00;50.40;;;;;;5053270;28;20028;-80
2021/05/29 09:26:43;;;;;;;3.10;1.80;;;32.10;50.50;;;;;;5035808;28;20471;-83
2021/05/29 09:29:30;;;;;;;3.25;1.90;;;33.50;49.50;;;;;;5035044;28;20876;-80
2021/05/29 09:31:57;;;;;;;2.67;1.42;;;34.60;48.80;;;;;;5052577;28;20041;-81
2021/05/29 09:34:52;;;;;;;3.17;1.58;;;35.40;48.00;;;;;;5052497;28;20084;-81
2021/05/29 09:37:27;;;;;;;4.03;2.67;;;36.00;46.10;;;;;;5034833;28;20021;-80
2021/05/29 09:40:05;;;;;;;3.42;2.10;;;35.30;44.50;;;;;;5031164;28;20112;-82
2021/05/29 09:42:34;;;;;;;4.00;1.40;;;34.20;44.90;;;;;;5015656;28;20026;-81
2021/05/29 09:45:22;;;;;;;2.33;1.63;;;33.60;46.30;;;;;;5015316;28;20026;-81
2021/05/29 09:48:20;;;;;;;2.72;1.38;;;33.10;46.00;;;;;;5033364;28;20109;-81
2021/05/29 09:51:03;;;;;;;3.15;1.80;;;32.50;46.00;;;;;;5032470;28;20067;-78
2021/05/29 09:53:32;;;;;;;2.25;1.50;;;31.40;45.90;;;;;;5034466;28;20028;-81
2021/05/29 09:55:58;;;;;;;2.42;1.45;;;30.70;46.50;;;;;;5034581;28;20056;-79
2021/05/29 09:58:50;;;;;;;2.47;1.52;;;30.50;46.90;;;;;;5001712;28;20120;-78
2021/05/29 10:01:34;;;;;;;4.15;1.92;;;30.20;47.00;;;;;;5014517;28;20036;-78
2021/05/29 10:04:00;;;;;;;3.38;1.60;;;30.20;48.00;;;;;;5028727;28;20071;-77
2021/05/29 10:06:26;;;;;;;2.20;1.70;;;30.70;48.10;;;;;;5052182;28;20406;-78
2021/05/29 10:08:52;;;;;;;2.67;1.55;;;31.20;48.10;;;;;;5018351;28;20021;-79
2021/05/29 10:11:18;;;;;;;6.38;1.67;;;31.70;48.20;;;;;;5052477;28;20067;-78
2021/05/29 10:13:44;;;;;;;5.70;1.80;;;31.80;46.80;;;;;;5033546;28;20056;-79
2021/05/29 10:16:10;;;;;;;3.55;1.30;;;31.70;46.30;;;;;;5033412;28;20416;-81
2021/05/29 10:18:36;;;;;;;3.17;1.77;;;31.30;46.30;;;;;;5050502;28;20111;-78
2021/05/29 10:21:02;;;;;;;3.28;1.48;;;31.00;46.40;;;;;;5034414;28;20120;-79
2021/05/29 10:23:28;;;;;;;2.67;1.30;;;31.50;47.00;;;;;;5051334;28;20021;-79
2021/05/29 10:25:56;;;;;;;3.65;1.40;;;32.60;46.40;;;;;;5033498;28;20044;-82
2021/05/29 10:28:22;;;;;;;2.40;1.60;;;33.40;45.50;;;;;;5034379;28;20029;-81
2021/05/29 10:30:50;;;;;;;3.22;1.33;;;33.90;45.10;;;;;;5035556;28;20523;-79
2021/05/29 10:33:19;;;;;;;1.50;1.20;;;34.20;44.90;;;;;;5051932;28;20036;-79
2021/05/29 10:35:46;;;;;;;3.10;1.20;;;35.10;44.50;;;;;;5017368;28;20041;-79
2021/05/29 10:38:14;;;;;;;1.67;1.30;;;34.90;43.20;;;;;;5033186;28;20025;-82
2021/05/29 10:40:42;;;;;;;2.33;1.40;;;34.20;43.20;;;;;;5032882;28;20082;-80
2021/05/29 10:43:19;;;;;;;5.43;1.40;;;33.90;43.60;;;;;;5050136;28;20061;-82
2021/05/29 10:45:51;;;;;;;2.70;1.50;;;33.60;43.70;;;;;;5016786;28;20041;-79
2021/05/29 10:48:18;;;;;;;2.50;1.40;;;32.90;43.20;;;;;;5035124;28;20024;-81
2021/05/29 10:50:52;;;;;;;4.05;1.73;;;32.10;43.90;;;;;;5033443;28;20458;-80
2021/05/29 10:53:37;;;;;;;2.10;1.50;;;31.40;44.20;;;;;;5033271;28;20027;-79
2021/05/29 10:56:21;;;;;;;2.47;1.60;;;31.40;46.00;;;;;;5029168;28;20115;-79
2021/05/29 10:58:56;;;;;;;3.45;1.60;;;31.70;44.90;;;;;;5029966;28;20053;-79
2021/05/29 11:01:23;;;;;;;3.35;1.67;;;31.10;44.60;;;;;;5011430;28;20384;-79
2021/05/29 11:04:11;;;;;;;2.50;1.33;;;30.50;45.00;;;;;;5009829;28;20041;-78
2021/05/29 11:06:38;;;;;;;4.72;1.50;;;30.30;45.30;;;;;;5011746;28;20036;-81
2021/05/29 11:09:05;;;;;;;4.32;1.50;;;30.10;45.60;;;;;;5009488;28;20060;-80
2021/05/29 11:14:15;;;;;;;3.42;1.77;;;31.10;46.20;;;;;;5031044;28;20388;-80
2021/05/29 11:16:47;;;;;;;1.90;1.50;;;32.20;46.10;;;;;;5028986;28;20033;-79
2021/05/29 11:19:25;;;;;;;2.70;1.20;;;33.00;44.70;;;;;;5029821;28;20074;-78
2021/05/29 11:22:07;;;;;;;2.05;1.38;;;32.90;44.40;;;;;;5031021;28;20111;-79
2021/05/29 11:24:40;;;;;;;1.85;1.48;;;33.40;44.30;;;;;;5029265;28;20033;-78
2021/05/29 11:27:08;;;;;;;2.05;1.17;;;33.90;43.40;;;;;;5028460;28;20017;-78
2021/05/29 11:30:09;;;;;;;1.95;1.33;;;34.20;43.30;;;;;;5028876;28;20025;-79
2021/05/29 11:33:03;;;;;;;6.20;1.75;;;34.50;43.50;;;;;;5030204;28;20571;-79
2021/05/29 11:35:36;;;;;;;3.35;1.65;;;34.80;43.00;;;;;;5029963;28;20033;-79
2021/05/29 11:38:12;;;;;;;2.03;1.30;;;34.80;42.20;;;;;;5009160;28;20376;-78
2021/05/29 11:40:45;;;;;;;2.60;1.60;;;34.50;42.30;;;;;;5013641;28;20083;-79
2021/05/29 11:43:11;;;;;;;3.15;1.40;;;34.10;41.90;;;;;;5030039;28;20087;-79
2021/05/29 11:45:38;;;;;;;4.20;1.70;;;33.10;42.50;;;;;;5027643;28;20070;-79
2021/05/29 11:48:05;;;;;;;4.93;1.40;;;32.50;42.80;;;;;;5027286;28;20459;-80
2021/05/29 11:50:32;;;;;;;2.67;1.63;;;32.20;43.10;;;;;;5011966;28;20026;-78
2021/05/29 11:52:58;;;;;;;2.35;1.60;;;31.60;43.10;;;;;;5027843;28;20030;-78
2021/05/29 11:55:23;;;;;;;8.68;1.85;;;30.70;43.10;;;;;;5010944;28;20153;-77
2021/05/29 11:58:01;;;;;;;3.25;1.67;;;30.00;44.80;;;;;;5028918;28;20053;-78
2021/05/29 12:00:28;;;;;;;6.88;2.75;;;29.70;44.60;;;;;;5027935;28;20112;-78
2021/05/29 12:02:54;;;;;;;1.90;1.58;;;29.50;44.70;;;;;;5027499;28;20550;-77
2021/05/29 12:05:21;;;;;;;3.33;1.65;;;28.90;44.60;;;;;;5028365;28;20084;-78
2021/05/29 12:07:59;;;;;;;3.22;1.58;;;27.50;44.90;;;;;;5026816;28;20054;-79
2021/05/29 12:10:25;;;;;;;4.15;1.70;;;27.50;45.60;;;;;;5026567;28;20013;-78
2021/05/29 12:12:54;;;;;;;3.67;2.13;;;27.10;46.00;;;;;;5026589;28;20521;-79
2021/05/29 12:15:22;;;;;;;2.30;1.80;;;26.80;46.80;;;;;;5027471;28;20132;-79
2021/05/29 12:17:47;;;;;;;4.55;1.67;;;27.00;47.40;;;;;;5027836;28;20331;-78
2021/05/29 12:20:13;;;;;;;4.43;2.00;;;27.50;47.60;;;;;;5029303;28;20040;-78
2021/05/29 12:22:39;;;;;;;2.22;1.75;;;28.10;50.40;;;;;;5029267;28;20033;-79
2021/05/29 12:25:07;;;;;;;2.67;1.70;;;28.70;50.90;;;;;;5028775;28;20040;-78
2021/05/29 12:27:41;;;;;;;2.20;1.73;;;28.80;45.60;;;;;;5028597;28;20100;-78
2021/05/29 12:30:10;;;;;;;7.20;1.80;;;28.80;46.10;;;;;;5026681;28;20040;-79
2021/05/29 12:32:37;;;;;;;4.97;2.85;;;28.70;46.00;;;;;;5028896;28;20640;-79
2021/05/29 12:35:07;;;;;;;4.97;3.33;;;28.30;46.10;;;;;;5027645;28;20091;-78
2021/05/29 12:37:35;;;;;;;5.85;3.97;;;27.60;46.80;;;;;;5028363;28;20041;-79
2021/05/29 12:40:14;;;;;;;5.32;3.83;;;26.90;47.70;;;;;;5027411;28;20033;-77
2021/05/29 12:42:45;;;;;;;9.05;3.65;;;26.20;48.80;;;;;;5027311;28;20025;-81
2021/05/29 12:45:18;;;;;;;6.60;4.38;;;25.70;49.60;;;;;;5028193;28;20026;-82
2021/05/29 12:47:57;;;;;;;7.30;4.13;;;25.30;50.40;;;;;;5029404;28;20017;-79
2021/05/29 12:50:31;;;;;;;7.47;3.80;;;25.10;51.10;;;;;;5011589;28;20029;-79
2021/05/29 12:53:10;;;;;;;5.05;4.35;;;25.10;50.60;;;;;;5027418;28;20068;-77
2021/05/29 12:55:37;;;;;;;7.93;3.40;;;25.10;50.80;;;;;;5011562;28;20483;-78
2021/05/29 12:58:32;;;;;;;7.82;3.88;;;25.00;50.80;;;;;;5027929;28;20035;-80
2021/05/29 13:09:19;;;;;;;6.90;3.50;;;24.80;51.50;;;;;;5027727;28;20163;-78
2021/05/29 13:11:46;;;;;;;5.68;4.13;;;24.90;51.90;;;;;;5021413;28;20033;-79
2021/05/29 13:14:14;;;;;;;5.32;3.78;;;25.10;51.80;;;;;;5027763;28;20432;-78
2021/05/29 13:16:54;;;;;;;4.50;3.67;;;25.50;52.10;;;;;;5028253;28;20483;-79